Luna, NM (87824)

8:09 AM MST on February 11, 2016 (GMT -0700)
Ponderosa Circle Estates | | Change Station
CLOSE
Current Station
Personal Weather Station
Location: Alpine, AZ
Elevation: 8054 ft
Nearby Weather Stations

Elev 8054 ft 33.82 °N, 109.11 °W | Updated 44 seconds ago

Clear
Clear
26.8 °F
Feels Like 27 °F
N
0.0
Wind Variable Wind from NNE

Today
High -- | Low -- °F
--% Chance of Precip.
Yesterday
High -- | Low -- °F
Precip. -- in
Pressure 30.40 in
Visibility 10.0 miles
Clouds Clear
Windchill 27 °F
Dew Point 8 °F
Humidity 45%
Rainfall 0.00 in
Snow Depth Not available.
7:04 AM 5:55 PM
Waxing Crescent, 12% visible
METAR KSJN 111454Z AUTO 00000KT 10SM CLR M04/M09 A3039 RMK AO2 SLP294 T10391089 53011 TSNO
Pressure 30.40 in
Visibility 10.0 miles
Clouds Clear
Windchill 27 °F
Dew Point 8 °F
Humidity 45%
Rainfall 0.00 in
Snow Depth Not available.
7:04 AM 5:55 PM
Waxing Crescent, 12% visible
METAR KSJN 111454Z AUTO 00000KT 10SM CLR M04/M09 A3039 RMK AO2 SLP294 T10391089 53011 TSNO

10-Day Weather Forecast

Almanac

Astronomy

Feb. 11, 2016 Rise Set
Actual Time
Civil Twilight
Nautical Twilight
Astronomical Twilight
Moon
Length of Visible Light
Length of Day
Tomorrow will be .
, % of the Moon is Illuminated

Today's Extremes

State Highs State Lows

Community

WunderPhotos

Upload Photos

1,892,059 photos uploaded!

WunderBlog® & News

Nearby

Air Quality

  Air Quality AQ Index Pollutant
Not available.

Snow Depth

Station Depth Elevation

Earthquake Activity

City Distance Mag. Time & Date
Minimum magnitude displayed is 2.5.

Coastal Water Temperatures

Place Temperature

Stations

Nearby Weather Stations

Station Location Temp. Windchill Dew Point Humidity Wind Precip. Elev Updated Type
                   

Watches & Warnings

There are currently no watches in effect.